Time;durP1;ratioP1;P1;durP2;ratioP2;P2;SDS_P1;SDS_P2;PMS_P1;PMS_P2;Temp;Humidity;BMP_temperature;BMP_pressure;BME280_temperature;BME280_humidity;BME280_pressure;Samples;Min_cycle;Max_cycle;Signal;HPM_P1;HPM_P2
2023/10/09 00:03:15;;;;;;;;;;;;;;;16.71;100.00;98556.66;5111457;28;19924;-66
2023/10/09 00:05:45;;;;;;;;;;;;;;;16.72;100.00;98555.53;5112026;28;19958;-66
2023/10/09 00:08:16;;;;;;;;;;;;;;;16.73;100.00;98554.44;5111891;28;19931;-66
2023/10/09 00:10:49;;;;;;;;;;;;;;;16.70;100.00;98552.31;5111826;28;19958;-66
2023/10/09 00:13:15;;;;;;;;;;;;;;;16.70;100.00;98546.94;5111989;28;19951;-66
2023/10/09 00:15:43;;;;;;;;;;;;;;;16.65;100.00;98546.97;5111748;28;19967;-66
2023/10/09 00:18:12;;;;;;;;;;;;;;;16.63;100.00;98541.88;5111984;28;20493;-66
2023/10/09 00:20:42;;;;;;;;;;;;;;;16.50;100.00;98537.13;5093542;28;19935;-66
2023/10/09 00:23:15;;;;;;;;;;;;;;;16.48;100.00;98544.72;5112100;28;19979;-66
2023/10/09 00:26:05;;;;;;;;;;;;;;;16.49;100.00;98532.03;5123392;28;19924;-66
2023/10/09 00:28:31;;;;;;;;;;;;;;;16.28;100.00;98530.66;5123616;28;19924;-66
2023/10/09 00:30:58;;;;;;;;;;;;;;;16.35;100.00;98536.47;5102894;28;19928;-66
2023/10/09 00:33:24;;;;;;;;;;;;;;;16.37;100.00;98532.41;5119892;28;19987;-67
2023/10/09 00:35:55;;;;;;;;;;;;;;;16.29;100.00;98518.75;5121607;28;19965;-67
2023/10/09 00:38:32;;;;;;;;;;;;;;;16.36;100.00;98522.72;5123259;28;19928;-67
2023/10/09 00:41:09;;;;;;;;;;;;;;;16.39;100.00;98518.66;5120481;28;19928;-67
2023/10/09 00:43:37;;;;;;;;;;;;;;;16.40;100.00;98510.28;5119673;28;19935;-67
2023/10/09 00:46:08;;;;;;;;;;;;;;;16.30;100.00;98509.59;5119908;28;19970;-67
2023/10/09 00:48:39;;;;;;;;;;;;;;;16.13;100.00;98510.00;5120001;28;20003;-67
2023/10/09 00:51:08;;;;;;;;;;;;;;;16.04;100.00;98512.53;5119551;28;19928;-67
2023/10/09 00:53:34;;;;;;;;;;;;;;;16.06;100.00;98514.94;5123531;28;19928;-67
2023/10/09 00:56:11;;;;;;;;;;;;;;;16.12;100.00;98509.19;5122955;28;19953;-66
2023/10/09 00:58:37;;;;;;;;;;;;;;;16.02;100.00;98509.31;5122845;28;19923;-66
2023/10/09 01:01:15;;;;;;;;;;;;;;;15.77;100.00;98509.53;5119309;28;19939;-67
2023/10/09 01:03:43;;;;;;;;;;;;;;;15.90;100.00;98500.00;5119253;28;19924;-67
2023/10/09 01:06:20;;;;;;;;;;;;;;;16.06;100.00;98499.56;5123014;28;19955;-66
2023/10/09 01:08:56;;;;;;;;;;;;;;;16.04;100.00;98493.66;5103297;28;19945;-67
2023/10/09 01:11:29;;;;;;;;;;;;;;;16.06;100.00;98494.16;5119418;28;19991;-67
2023/10/09 01:14:11;;;;;;;;;;;;;;;16.20;100.00;98478.16;5121800;28;20357;-66
2023/10/09 01:16:38;;;;;;;;;;;;;;;16.00;100.00;98467.59;5122820;28;19979;-65
2023/10/09 01:19:13;;;;;;;;;;;;;;;16.04;100.00;98469.41;5119187;28;19924;-65
2023/10/09 01:21:40;;;;;;;;;;;;;;;16.14;100.00;98463.94;5119624;28;19924;-65
2023/10/09 01:24:08;;;;;;;;;;;;;;;15.87;100.00;98462.84;5127271;28;19963;-66
2023/10/09 01:26:34;;;;;;;;;;;;;;;15.87;100.00;98460.97;5122756;28;19924;-66
2023/10/09 01:29:01;;;;;;;;;;;;;;;16.00;100.00;98467.59;5119537;28;19939;-66
2023/10/09 01:31:33;;;;;;;;;;;;;;;15.69;100.00;98450.09;5119222;28;19924;-65
2023/10/09 01:34:00;;;;;;;;;;;;;;;15.66;100.00;98452.25;5122372;28;19924;-65
2023/10/09 01:36:31;;;;;;;;;;;;;;;15.86;100.00;98456.66;5122794;28;19930;-65
2023/10/09 01:38:59;;;;;;;;;;;;;;;15.98;100.00;98454.38;5119799;28;19946;-65
2023/10/09 01:41:28;;;;;;;;;;;;;;;15.39;100.00;98440.34;5119068;28;19959;-65
2023/10/09 01:44:00;;;;;;;;;;;;;;;15.27;100.00;98437.19;5121352;28;19938;-66
2023/10/09 01:46:27;;;;;;;;;;;;;;;15.48;100.00;98450.25;5122709;28;19924;-66
2023/10/09 01:48:54;;;;;;;;;;;;;;;15.58;100.00;98439.41;5102480;28;19923;-66
2023/10/09 01:51:21;;;;;;;;;;;;;;;15.21;100.00;98439.13;5119361;28;19924;-66
2023/10/09 01:53:54;;;;;;;;;;;;;;;15.42;100.00;98439.75;5125240;28;19935;-65
2023/10/09 01:56:20;;;;;;;;;;;;;;;15.34;100.00;98435.81;5122900;28;19924;-66
2023/10/09 01:58:50;;;;;;;;;;;;;;;15.03;100.00;98435.22;5121367;28;19955;-66
2023/10/09 02:01:16;;;;;;;;;;;;;;;14.81;100.00;98434.81;5119046;28;19932;-66
2023/10/09 02:03:45;;;;;;;;;;;;;;;15.01;100.00;98440.03;5119683;28;19949;-66
2023/10/09 02:06:27;;;;;;;;;;;;;;;15.33;100.00;98430.69;5122552;28;19923;-66
2023/10/09 02:08:54;;;;;;;;;;;;;;;14.88;100.00;98424.56;5102130;28;19931;-66
2023/10/09 02:11:24;;;;;;;;;;;;;;;14.73;100.00;98421.91;5118978;28;19933;-66
2023/10/09 02:14:00;;;;;;;;;;;;;;;14.65;100.00;98419.81;5121502;28;19931;-66
2023/10/09 02:16:29;;;;;;;;;;;;;;;14.74;100.00;98418.16;5126296;28;19946;-66
2023/10/09 02:18:56;;;;;;;;;;;;;;;14.83;100.00;98416.50;5123916;28;19932;-66
2023/10/09 02:21:33;;;;;;;;;;;;;;;14.77;100.00;98417.59;5122962;28;19928;-67
2023/10/09 02:24:04;;;;;;;;;;;;;;;14.73;100.00;98418.44;5130370;28;19991;-67
2023/10/09 02:26:49;;;;;;;;;;;;;;;14.94;100.00;98431.50;5126503;28;19970;-66
2023/10/09 02:29:17;;;;;;;;;;;;;;;14.70;100.00;98417.09;5122646;28;19991;-66
2023/10/09 02:31:46;;;;;;;;;;;;;;;14.75;100.00;98418.97;5123193;28;19920;-66
2023/10/09 02:34:15;;;;;;;;;;;;;;;14.78;100.00;98418.41;5125912;28;20023;-67
2023/10/09 02:36:43;;;;;;;;;;;;;;;14.70;100.00;98416.31;5125060;28;19927;-66
2023/10/09 02:39:22;;;;;;;;;;;;;;;14.72;100.00;98414.16;5122080;28;19924;-67
2023/10/09 02:41:50;;;;;;;;;;;;;;;15.06;100.00;98407.75;5105601;28;19920;-67
2023/10/09 02:44:24;;;;;;;;;;;;;;;15.16;100.00;98401.50;5125480;28;19924;-67
2023/10/09 02:46:50;;;;;;;;;;;;;;;15.36;100.00;98401.34;5123664;28;19923;-67
2023/10/09 02:49:18;;;;;;;;;;;;;;;15.31;100.00;98400.56;5122289;28;19931;-66
2023/10/09 02:51:47;;;;;;;;;;;;;;;15.21;100.00;98401.44;5123007;28;19946;-66
2023/10/09 02:54:27;;;;;;;;;;;;;;;15.47;100.00;98391.28;5130668;28;19920;-67
2023/10/09 02:56:57;;;;;;;;;;;;;;;15.54;100.00;98386.41;5124405;28;19919;-66
2023/10/09 02:59:25;;;;;;;;;;;;;;;15.72;100.00;98383.00;5104088;28;19924;-67
2023/10/09 03:01:52;;;;;;;;;;;;;;;15.81;100.00;98384.00;5123934;28;19927;-66
2023/10/09 03:04:19;;;;;;;;;;;;;;;15.11;100.00;98370.03;5107562;28;19919;-66
2023/10/09 03:06:49;;;;;;;;;;;;;;;15.23;100.00;98380.44;5124334;28;19957;-66
2023/10/09 03:09:17;;;;;;;;;;;;;;;15.28;100.00;98369.66;5121859;28;20296;-66
2023/10/09 03:11:44;;;;;;;;;;;;;;;15.18;100.00;98372.41;5122350;28;20045;-66
2023/10/09 03:14:10;;;;;;;;;;;;;;;14.79;100.00;98367.03;5125078;28;19931;-66
2023/10/09 03:16:38;;;;;;;;;;;;;;;14.97;100.00;98368.28;5125145;28;19930;-66
2023/10/09 03:19:04;;;;;;;;;;;;;;;15.01;100.00;98362.03;5121791;28;20011;-66
2023/10/09 03:21:31;;;;;;;;;;;;;;;14.62;100.00;98361.25;5122087;28;19950;-66
2023/10/09 03:23:58;;;;;;;;;;;;;;;14.62;100.00;98363.94;5129236;28;19930;-66
2023/10/09 03:26:25;;;;;;;;;;;;;;;14.61;100.00;98356.94;5124789;28;20479;-65
2023/10/09 03:28:52;;;;;;;;;;;;;;;14.58;100.00;98366.34;5105251;28;19957;-66
2023/10/09 03:31:18;;;;;;;;;;;;;;;14.23;100.00;98357.66;5121783;28;19928;-66
2023/10/09 03:33:47;;;;;;;;;;;;;;;14.18;100.00;98366.53;5122302;28;19920;-66
2023/10/09 03:36:16;;;;;;;;;;;;;;;14.17;100.00;98369.50;5125048;28;19945;-66
2023/10/09 03:38:44;;;;;;;;;;;;;;;14.04;100.00;98369.00;5124039;28;19924;-66
2023/10/09 03:41:12;;;;;;;;;;;;;;;13.93;100.00;98377.34;5121027;28;19925;-66
2023/10/09 03:43:40;;;;;;;;;;;;;;;13.82;100.00;98373.91;5121293;28;19924;-66
2023/10/09 03:46:20;;;;;;;;;;;;;;;13.75;100.00;98372.56;5124615;28;19924;-67
2023/10/09 03:48:48;;;;;;;;;;;;;;;13.74;100.00;98382.50;5123245;28;20421;-67
2023/10/09 03:51:21;;;;;;;;;;;;;;;13.71;100.00;98372.28;5121206;28;19928;-66
2023/10/09 03:53:47;;;;;;;;;;;;;;;13.63;100.00;98367.50;5126887;28;19923;-66
2023/10/09 03:56:15;;;;;;;;;;;;;;;13.65;100.00;98359.19;5106291;28;19920;-66
2023/10/09 03:58:44;;;;;;;;;;;;;;;13.63;100.00;98370.19;5123794;28;19980;-67
2023/10/09 04:01:16;;;;;;;;;;;;;;;13.79;100.00;98369.06;5120511;28;19924;-66
2023/10/09 04:03:43;;;;;;;;;;;;;;;13.79;100.00;98366.38;5120918;28;19924;-67
2023/10/09 04:06:12;;;;;;;;;;;;;;;13.86;100.00;98363.44;5123805;28;20022;-65
2023/10/09 04:08:44;;;;;;;;;;;;;;;14.31;100.00;98357.88;5123947;28;19924;-66
2023/10/09 04:11:16;;;;;;;;;;;;;;;14.16;100.00;98363.31;5120360;28;19932;-66
2023/10/09 04:13:45;;;;;;;;;;;;;;;14.45;100.00;98366.19;5120750;28;19924;-66
2023/10/09 04:16:33;;;;;;;;;;;;;;;14.46;100.00;98363.19;5123783;28;19924;-67
2023/10/09 04:19:05;;;;;;;;;;;;;;;14.50;100.00;98358.09;5105466;28;19999;-66
2023/10/09 04:21:35;;;;;;;;;;;;;;;14.80;100.00;98357.91;5123528;28;19930;-66
2023/10/09 04:24:22;;;;;;;;;;;;;;;14.74;100.00;98350.94;5123339;28;19924;-66
2023/10/09 04:26:55;;;;;;;;;;;;;;;14.69;100.00;98345.63;5122041;28;20019;-67
2023/10/09 04:29:26;;;;;;;;;;;;;;;14.72;100.00;98342.38;5119780;28;19938;-67
2023/10/09 04:31:54;;;;;;;;;;;;;;;14.89;100.00;98328.50;5121640;28;19924;-67
2023/10/09 04:34:34;;;;;;;;;;;;;;;14.93;100.00;98329.56;5123428;28;19990;-66
2023/10/09 04:37:19;;;;;;;;;;;;;;;15.13;100.00;98324.81;5101705;28;19924;-66
2023/10/09 04:39:47;;;;;;;;;;;;;;;15.41;100.00;98309.00;5120909;28;19928;-67
2023/10/09 04:42:26;;;;;;;;;;;;;;;15.44;100.00;98309.19;5123307;28;19972;-67
2023/10/09 04:45:19;;;;;;;;;;;;;;;14.98;100.00;98306.13;5102934;28;20446;-66
2023/10/09 04:53:23;;;;;;;;;;;;;;;14.76;100.00;98307.66;5091631;28;19927;-66
2023/10/09 04:55:54;;;;;;;;;;;;;;;14.92;100.00;98312.63;5123477;28;19959;-67
2023/10/09 04:58:25;;;;;;;;;;;;;;;15.23;100.00;98304.28;5123463;28;19923;-66
2023/10/09 05:01:04;;;;;;;;;;;;;;;14.91;100.00;98305.66;5121336;28;19930;-66
2023/10/09 05:03:44;;;;;;;;;;;;;;;14.50;100.00;98296.28;5119631;28;19946;-66
2023/10/09 05:09:07;;;;;;;;;;;;;;;14.78;100.00;98292.84;5110680;28;19927;-66
2023/10/09 05:14:26;;;;;;;;;;;;;;;14.93;100.00;98281.16;5087845;28;19924;-66
2023/10/09 05:16:54;;;;;;;;;;;;;;;14.93;100.00;98281.97;5110888;28;19974;-66
2023/10/09 05:19:29;;;;;;;;;;;;;;;14.65;100.00;98282.72;5111027;28;19980;-65
2023/10/09 05:21:58;;;;;;;;;;;;;;;14.12;100.00;98286.25;5122467;28;19934;-66
2023/10/09 05:24:28;;;;;;;;;;;;;;;13.96;100.00;98283.63;5110190;28;19923;-66
2023/10/09 05:27:12;;;;;;;;;;;;;;;14.35;100.00;98280.25;5120848;28;19920;-66
2023/10/09 05:29:48;;;;;;;;;;;;;;;14.64;100.00;98288.41;5135530;28;19924;-65
2023/10/09 05:32:15;;;;;;;;;;;;;;;14.80;100.00;98281.81;5119293;28;20043;-66
2023/10/09 05:35:06;;;;;;;;;;;;;;;14.53;100.00;98284.97;5119534;28;20018;-66
2023/10/09 05:37:32;;;;;;;;;;;;;;;14.96;100.00;98283.28;5104774;28;19924;-66
2023/10/09 05:40:22;;;;;;;;;;;;;;;14.47;100.00;98278.03;5119826;28;19967;-66
2023/10/09 05:42:57;;;;;;;;;;;;;;;14.42;100.00;98286.13;5120638;28;19990;-66
2023/10/09 05:48:48;;;;;;;;;;;;;;;14.02;100.00;98295.94;5119059;28;19928;-66
2023/10/09 06:04:53;;;;;;;;;;;;;;;14.35;100.00;98318.66;5123279;28;19928;-66
2023/10/09 06:07:23;;;;;;;;;;;;;;;14.52;100.00;98313.72;5114744;28;19989;-66
2023/10/09 06:09:49;;;;;;;;;;;;;;;14.24;100.00;98321.63;5114713;28;19959;-67
2023/10/09 06:18:32;;;;;;;;;;;;;;;13.93;100.00;98334.38;5158096;27;19955;-67
2023/10/09 06:24:09;;;;;;;;;;;;;;;13.85;100.00;98332.28;5161123;27;19949;-66
2023/10/09 06:26:35;;;;;;;;;;;;;;;13.94;100.00;98336.00;5161569;27;19930;-66
2023/10/09 06:29:33;;;;;;;;;;;;;;;13.95;100.00;98334.94;5174066;27;19957;-66
2023/10/09 06:32:23;;;;;;;;;;;;;;;13.94;100.00;98336.00;5161527;27;19927;-66
2023/10/09 06:34:52;;;;;;;;;;;;;;;14.00;100.00;98346.47;5159468;27;19980;-65
2023/10/09 06:37:34;;;;;;;;;;;;;;;14.04;100.00;98333.28;5157254;27;19995;-66
2023/10/09 06:42:51;;;;;;;;;;;;;;;13.94;100.00;98328.75;5160031;27;19976;-66
2023/10/09 06:45:17;;;;;;;;;;;;;;;14.10;100.00;98331.38;5157391;27;19934;-66
2023/10/09 06:47:55;;;;;;;;;;;;;;;14.04;100.00;98334.09;5158115;27;19934;-66
2023/10/09 06:50:25;;;;;;;;;;;;;;;14.16;100.00;98351.75;5161550;27;19954;-67
2023/10/09 06:52:57;;;;;;;;;;;;;;;14.19;100.00;98345.84;5157737;27;20015;-67
2023/10/09 06:55:33;;;;;;;;;;;;;;;14.32;100.00;98353.31;5162276;27;19949;-66
2023/10/09 06:58:01;;;;;;;;;;;;;;;14.29;100.00;98349.31;5176146;27;19930;-66
2023/10/09 07:03:13;;;;;;;;;;;;;;;14.67;100.00;98355.03;5157247;27;19923;-66
2023/10/09 07:06:00;;;;;;;;;;;;;;;14.95;100.00;98360.47;5157099;27;19958;-66
2023/10/09 07:08:31;;;;;;;;;;;;;;;15.04;100.00;98353.41;5160473;27;19930;-66
2023/10/09 07:11:20;;;;;;;;;;;;;;;14.89;100.00;98356.22;5157768;27;20010;-67
2023/10/09 07:13:48;;;;;;;;;;;;;;;14.69;100.00;98348.31;5157111;27;19991;-66
2023/10/09 07:16:28;;;;;;;;;;;;;;;14.62;100.00;98355.88;5160431;27;19953;-66
2023/10/09 07:19:09;;;;;;;;;;;;;;;14.61;100.00;98343.50;5156781;27;19919;-65
2023/10/09 07:21:35;;;;;;;;;;;;;;;14.48;100.00;98344.13;5156928;27;19927;-65
2023/10/09 07:24:14;;;;;;;;;;;;;;;14.51;100.00;98357.00;5164606;27;19966;-65
2023/10/09 07:26:47;;;;;;;;;;;;;;;14.61;100.00;98348.88;5146890;27;19919;-65
2023/10/09 07:29:21;;;;;;;;;;;;;;;14.54;100.00;98349.19;5142478;27;19948;-65
2023/10/09 07:31:57;;;;;;;;;;;;;;;14.62;100.00;98350.47;5143607;27;19951;-65
2023/10/09 07:34:52;;;;;;;;;;;;;;;14.49;100.00;98354.59;5146113;27;19945;-66
2023/10/09 07:37:22;;;;;;;;;;;;;;;14.57;100.00;98356.72;5133818;28;19926;-66
2023/10/09 07:39:57;;;;;;;;;;;;;;;14.66;100.00;98364.19;5133776;28;19920;-66
2023/10/09 07:42:33;;;;;;;;;;;;;;;14.72;100.00;98363.06;5133986;28;19941;-66
2023/10/09 07:45:11;;;;;;;;;;;;;;;14.83;100.00;98368.09;5133914;28;19939;-66
2023/10/09 07:50:21;;;;;;;;;;;;;;;14.95;100.00;98381.19;5129292;27;19924;-65
2023/10/09 07:52:49;;;;;;;;;;;;;;;15.04;100.00;98391.06;5160050;27;19924;-65
2023/10/09 07:55:26;;;;;;;;;;;;;;;15.10;100.00;98381.88;5149117;27;19924;-66
2023/10/09 07:57:52;;;;;;;;;;;;;;;15.14;100.00;98376.75;5144043;27;19935;-66
2023/10/09 08:01:05;;;;;;;;;;;;;;;15.06;100.00;98372.78;5146107;27;19954;-66
2023/10/09 08:03:24;;;;;;;;;;;;;;;14.95;100.00;98370.44;5141744;27;19931;-66
2023/10/09 08:06:06;;;;;;;;;;;;;;;14.89;100.00;98372.34;5143796;27;19967;-66
2023/10/09 08:14:02;;;;;;;;;;;;;;;15.09;100.00;98366.84;5133075;28;19924;-66
2023/10/09 08:16:36;;;;;;;;;;;;;;;15.14;100.00;98369.47;5133284;28;19946;-66
2023/10/09 08:19:20;;;;;;;;;;;;;;;15.19;100.00;98374.03;5132100;28;19956;-66
2023/10/09 08:22:16;;;;;;;;;;;;;;;15.24;100.00;98381.25;5132982;28;19927;-66
2023/10/09 08:24:40;;;;;;;;;;;;;;;15.27;100.00;98381.50;5145766;27;19930;-66
2023/10/09 08:29:47;;;;;;;;;;;;;;;15.43;100.00;98395.63;5133589;27;19924;-66
2023/10/09 08:32:38;;;;;;;;;;;;;;;15.49;100.00;98394.53;5145365;27;20026;-64
2023/10/09 08:35:06;;;;;;;;;;;;;;;15.59;100.00;98397.13;5141722;27;19924;-65
2023/10/09 08:37:33;;;;;;;;;;;;;;;15.67;100.00;98391.13;5140619;27;19924;-65
2023/10/09 08:40:00;;;;;;;;;;;;;;;15.72;100.00;98380.28;5144440;27;19935;-65
2023/10/09 08:42:28;;;;;;;;;;;;;;;15.75;100.00;98377.06;5144689;27;19924;-65
2023/10/09 08:45:00;;;;;;;;;;;;;;;15.73;100.00;98387.28;5142532;27;19934;-65
2023/10/09 08:47:26;;;;;;;;;;;;;;;15.71;100.00;98384.09;5141508;27;19931;-64
2023/10/09 08:49:53;;;;;;;;;;;;;;;15.72;100.00;98391.06;5159377;27;19947;-64
2023/10/09 08:52:19;;;;;;;;;;;;;;;15.79;100.00;98385.34;5143989;27;19923;-65
2023/10/09 08:54:47;;;;;;;;;;;;;;;15.89;100.00;98396.03;5149519;27;19923;-66
2023/10/09 08:57:19;;;;;;;;;;;;;;;15.92;100.00;98401.66;5141618;27;19924;-66
2023/10/09 08:59:45;;;;;;;;;;;;;;;15.99;100.00;98402.13;5142029;27;19946;-65
2023/10/09 09:02:12;;;;;;;;;;;;;;;16.00;100.00;98403.72;5144566;27;19928;-66
2023/10/09 09:04:39;;;;;;;;;;;;;;;16.04;100.00;98399.38;5143374;27;19923;-66
2023/10/09 09:07:06;;;;;;;;;;;;;;;16.05;100.00;98394.78;5132342;28;19924;-67
2023/10/09 09:09:34;;;;;;;;;;;;;;;16.11;100.00;98410.63;5132311;28;20312;-66
2023/10/09 09:12:02;;;;;;;;;;;;;;;16.15;100.00;98403.53;5132391;28;19920;-66
2023/10/09 09:14:38;;;;;;;;;;;;;;;16.22;100.00;98408.59;5132322;28;19955;-66
2023/10/09 09:17:10;;;;;;;;;;;;;;;16.28;100.00;98404.75;5140883;27;19920;-66
2023/10/09 09:19:37;;;;;;;;;;;;;;;16.39;100.00;98400.03;5140840;27;19930;-66
2023/10/09 09:22:12;;;;;;;;;;;;;;;16.39;100.00;98400.84;5144121;27;19927;-66
2023/10/09 09:24:45;;;;;;;;;;;;;;;16.49;100.00;98392.66;5148940;27;19935;-66
2023/10/09 09:27:20;;;;;;;;;;;;;;;16.51;100.00;98390.44;5131826;28;19930;-66
2023/10/09 09:29:53;;;;;;;;;;;;;;;16.55;100.00;98380.75;5131713;28;19924;-66
2023/10/09 09:32:29;;;;;;;;;;;;;;;16.59;100.00;98386.31;5131854;28;19930;-66
2023/10/09 09:34:59;;;;;;;;;;;;;;;16.62;100.00;98383.03;5131703;28;19945;-66
2023/10/09 09:37:29;;;;;;;;;;;;;;;16.75;100.00;98382.34;5131749;28;19983;-66
2023/10/09 09:39:56;;;;;;;;;;;;;;;16.74;100.00;98384.22;5131700;28;19923;-66
2023/10/09 09:42:27;;;;;;;;;;;;;;;16.77;100.00;98390.97;5131686;28;19959;-66
2023/10/09 09:44:53;;;;;;;;;;;;;;;16.81;100.00;98391.16;5131500;28;19935;-66
2023/10/09 09:47:26;;;;;;;;;;;;;;;16.80;100.00;98400.34;5131789;28;19941;-66
2023/10/09 09:49:59;;;;;;;;;;;;;;;16.78;100.00;98391.72;5131216;28;19924;-66
2023/10/09 09:52:27;;;;;;;;;;;;;;;16.81;100.00;98386.56;5131629;28;19923;-67
2023/10/09 09:54:54;;;;;;;;;;;;;;;16.81;100.00;98400.06;5144841;27;19919;-66
2023/10/09 09:57:25;;;;;;;;;;;;;;;16.86;100.00;98397.31;5140167;27;20002;-66
2023/10/09 09:59:55;;;;;;;;;;;;;;;16.87;100.00;98406.16;5141828;27;20442;-66
2023/10/09 10:02:25;;;;;;;;;;;;;;;16.93;100.00;98408.50;5142330;27;20082;-66
2023/10/09 10:04:54;;;;;;;;;;;;;;;16.94;100.00;98418.22;5141650;27;19931;-64
2023/10/09 10:07:21;;;;;;;;;;;;;;;17.05;100.00;98403.47;5139793;27;20029;-65
2023/10/09 10:09:54;;;;;;;;;;;;;;;17.02;100.00;98414.84;5140832;27;19924;-65
2023/10/09 10:12:46;;;;;;;;;;;;;;;17.09;100.00;98401.81;5143419;28;19919;-65
2023/10/09 10:15:15;;;;;;;;;;;;;;;17.25;100.00;98397.78;5139457;28;19928;-66
2023/10/09 10:17:58;;;;;;;;;;;;;;;17.30;100.00;98396.88;5140036;28;19928;-66
2023/10/09 10:20:31;;;;;;;;;;;;;;;17.22;100.00;98403.75;5143257;28;19919;-66
2023/10/09 10:23:18;;;;;;;;;;;;;;;17.17;100.00;98397.66;5140714;28;19932;-65
2023/10/09 10:25:49;;;;;;;;;;;;;;;17.27;100.00;98398.28;5140348;28;19924;-66
2023/10/09 10:28:35;;;;;;;;;;;;;;;17.24;100.00;98400.75;5143194;28;20018;-66
2023/10/09 10:31:04;;;;;;;;;;;;;;;17.28;100.00;98397.19;5140422;28;19934;-66
2023/10/09 10:34:06;;;;;;;;;;;;;;;17.37;100.00;98418.09;5140519;28;19974;-66
2023/10/09 10:36:34;;;;;;;;;;;;;;;17.35;100.00;98410.31;5131016;28;19955;-67
2023/10/09 10:39:09;;;;;;;;;;;;;;;17.45;100.00;98410.16;5131089;28;19924;-67
2023/10/09 10:41:38;;;;;;;;;;;;;;;17.48;100.00;98411.47;5131084;28;19931;-67
2023/10/09 10:46:51;;;;;;;;;;;;;;;17.41;100.00;98401.03;5140159;28;19958;-67
2023/10/09 10:49:21;;;;;;;;;;;;;;;17.49;100.00;98399.53;5143149;28;19929;-67
2023/10/09 10:52:01;;;;;;;;;;;;;;;17.52;100.00;98394.34;5141715;28;20002;-67
2023/10/09 10:54:45;;;;;;;;;;;;;;;17.56;100.00;98381.09;5145967;27;19923;-67
2023/10/09 10:57:52;;;;;;;;;;;;;;;17.56;100.00;98381.09;5139431;28;19928;-67
2023/10/09 11:03:13;;;;;;;;;;;;;;;17.51;100.00;98373.88;5145575;27;19985;-67
2023/10/09 11:05:40;;;;;;;;;;;;;;;17.60;100.00;98374.00;5146780;27;19955;-67
2023/10/09 11:08:09;;;;;;;;;;;;;;;17.63;100.00;98384.22;5142139;27;19924;-67
2023/10/09 11:10:48;;;;;;;;;;;;;;;17.74;100.00;98396.44;5143200;27;19924;-67
2023/10/09 11:13:35;;;;;;;;;;;;;;;17.76;100.00;98413.19;5142967;27;19924;-67
2023/10/09 11:16:24;;;;;;;;;;;;;;;17.78;100.00;98408.28;5146150;27;20026;-67
2023/10/09 11:18:51;;;;;;;;;;;;;;;17.75;100.00;98406.97;5144215;27;20012;-66
2023/10/09 11:21:31;;;;;;;;;;;;;;;17.83;100.00;98405.47;5143585;27;19923;-67
2023/10/09 11:23:58;;;;;;;;;;;;;;;17.87;100.00;98406.47;5150301;27;19934;-66
2023/10/09 11:26:26;;;;;;;;;;;;;;;17.88;100.00;98408.09;5146726;27;19923;-66
2023/10/09 11:29:23;;;;;;;;;;;;;;;17.94;100.00;98406.09;5144683;27;19927;-66
2023/10/09 11:31:59;;;;;;;;;;;;;;;17.90;100.00;98407.78;5144065;27;19946;-66
2023/10/09 11:34:31;;;;;;;;;;;;;;;17.72;100.00;98407.56;5146222;27;19945;-67
2023/10/09 11:36:58;;;;;;;;;;;;;;;17.85;100.00;98403.28;5143539;27;19971;-66
2023/10/09 11:39:31;;;;;;;;;;;;;;;17.81;100.00;98396.88;5158614;27;19924;-66
2023/10/09 11:42:04;;;;;;;;;;;;;;;17.92;100.00;98384.75;5144826;27;19930;-66
2023/10/09 11:44:45;;;;;;;;;;;;;;;17.88;100.00;98369.47;5146343;27;19923;-65
2023/10/09 11:47:32;;;;;;;;;;;;;;;17.88;100.00;98367.56;5142592;27;19931;-66
2023/10/09 11:50:12;;;;;;;;;;;;;;;17.87;100.00;98365.94;5145244;27;19923;-66
2023/10/09 11:52:56;;;;;;;;;;;;;;;17.87;100.00;98347.03;5145964;27;19923;-66
2023/10/09 11:55:25;;;;;;;;;;;;;;;17.83;100.00;98343.31;5147450;27;19939;-66
2023/10/09 11:57:51;;;;;;;;;;;;;;;17.83;100.00;98335.22;5143717;27;20007;-66
2023/10/09 12:00:29;;;;;;;;;;;;;;;17.83;100.00;98321.72;5146041;27;19947;-66
2023/10/09 12:02:55;;;;;;;;;;;;;;;17.85;100.00;98310.63;5143607;27;20478;-66
2023/10/09 12:05:27;;;;;;;;;;;;;;;17.80;100.00;98295.28;5142335;27;19927;-66
2023/10/09 12:07:56;;;;;;;;;;;;;;;17.84;100.00;98299.00;5144274;27;20011;-66
2023/10/09 12:10:25;;;;;;;;;;;;;;;17.81;100.00;98299.59;5146117;27;19949;-66
2023/10/09 12:12:52;;;;;;;;;;;;;;;17.88;100.00;98308.13;5144043;27;19927;-67
2023/10/09 12:15:19;;;;;;;;;;;;;;;17.80;100.00;98311.50;5141979;27;19924;-66
2023/10/09 12:17:47;;;;;;;;;;;;;;;17.75;100.00;98307.00;5143007;27;19923;-66
2023/10/09 12:20:29;;;;;;;;;;;;;;;17.93;100.00;98323.41;5145910;27;20478;-66
2023/10/09 12:22:58;;;;;;;;;;;;;;;17.85;100.00;98330.34;5143209;27;19923;-66
2023/10/09 12:25:24;;;;;;;;;;;;;;;17.95;100.00;98340.16;5147359;27;19987;-65
2023/10/09 12:27:54;;;;;;;;;;;;;;;17.98;100.00;98342.25;5143529;27;19924;-65
2023/10/09 12:30:26;;;;;;;;;;;;;;;17.97;100.00;98351.44;5145555;27;19924;-65
2023/10/09 12:32:53;;;;;;;;;;;;;;;18.01;100.00;98366.75;5143481;27;19934;-65
2023/10/09 12:35:19;;;;;;;;;;;;;;;18.02;100.00;98371.06;5141680;27;19957;-65
2023/10/09 12:37:46;;;;;;;;;;;;;;;18.01;100.00;98372.16;5142709;27;19931;-65
2023/10/09 12:40:23;;;;;;;;;;;;;;;17.97;100.00;98346.03;5145841;27;19924;-65
2023/10/09 12:42:49;;;;;;;;;;;;;;;17.84;100.00;98333.31;5144540;27;19923;-67
2023/10/09 12:45:17;;;;;;;;;;;;;;;17.92;100.00;98325.31;5142175;27;20591;-65
2023/10/09 12:47:44;;;;;;;;;;;;;;;17.96;100.00;98320.91;5142382;27;19924;-66
2023/10/09 12:50:13;;;;;;;;;;;;;;;17.92;100.00;98325.31;5145249;27;19924;-66
2023/10/09 12:52:40;;;;;;;;;;;;;;;17.87;100.00;98321.91;5144073;27;19979;-66
2023/10/09 12:55:09;;;;;;;;;;;;;;;17.92;100.00;98341.53;5146670;27;20281;-67
2023/10/09 12:57:37;;;;;;;;;;;;;;;17.89;100.00;98358.34;5141479;27;19930;-66
2023/10/09 13:00:10;;;;;;;;;;;;;;;17.92;100.00;98384.75;5144722;27;19934;-67
2023/10/09 13:02:37;;;;;;;;;;;;;;;17.95;100.00;98402.31;5145027;27;19995;-68
2023/10/09 13:05:09;;;;;;;;;;;;;;;17.97;100.00;98416.31;5142090;27;19924;-68
2023/10/09 13:07:36;;;;;;;;;;;;;;;17.95;100.00;98427.41;5141430;27;19924;-67
2023/10/09 13:10:09;;;;;;;;;;;;;;;17.97;100.00;98427.13;5144615;27;19924;-66
2023/10/09 13:12:41;;;;;;;;;;;;;;;17.94;100.00;98428.53;5145410;27;19924;-66
2023/10/09 13:15:09;;;;;;;;;;;;;;;17.86;100.00;98406.78;5142488;27;19923;-67
2023/10/09 13:17:36;;;;;;;;;;;;;;;17.48;100.00;98382.56;5141834;27;19942;-67
2023/10/09 13:20:03;;;;;;;;;;;;;;;17.41;100.00;98357.84;5161024;27;19924;-66
2023/10/09 13:22:30;;;;;;;;;;;;;;;17.39;100.00;98316.03;5143883;27;19919;-67
2023/10/09 13:25:03;;;;;;;;;;;;;;;17.66;100.00;98291.78;5146970;27;19923;-66
2023/10/09 13:27:34;;;;;;;;;;;;;;;17.75;100.00;98290.81;5141270;27;19924;-66
2023/10/09 13:30:06;;;;;;;;;;;;;;;17.77;100.00;98290.50;5144077;27;19987;-66
2023/10/09 13:32:35;;;;;;;;;;;;;;;17.87;100.00;98278.69;5144866;27;19938;-66
2023/10/09 13:35:03;;;;;;;;;;;;;;;17.80;100.00;98274.47;5141168;27;19930;-67
2023/10/09 13:37:31;;;;;;;;;;;;;;;17.63;100.00;98268.88;5140841;27;19927;-66
2023/10/09 13:39:59;;;;;;;;;;;;;;;17.66;100.00;98262.09;5143116;27;19924;-67
2023/10/09 13:42:25;;;;;;;;;;;;;;;17.53;100.00;98263.66;5144133;27;19923;-67
2023/10/09 13:44:53;;;;;;;;;;;;;;;17.44;100.00;98260.03;5142223;27;19934;-66
2023/10/09 13:47:23;;;;;;;;;;;;;;;17.58;100.00;98260.06;5156465;27;19935;-66
2023/10/09 13:49:53;;;;;;;;;;;;;;;17.35;100.00;98261.84;5141625;27;20015;-66
2023/10/09 13:52:21;;;;;;;;;;;;;;;17.37;100.00;98248.03;5143736;27;19923;-66
2023/10/09 13:54:49;;;;;;;;;;;;;;;17.27;100.00;98243.59;5147605;27;19923;-66
2023/10/09 13:57:16;;;;;;;;;;;;;;;17.28;100.00;98237.91;5140510;27;19970;-66
2023/10/09 13:59:48;;;;;;;;;;;;;;;17.26;100.00;98240.13;5140629;27;19934;-67
2023/10/09 14:02:18;;;;;;;;;;;;;;;17.27;100.00;98233.59;5143878;27;19930;-67